createdAt,value
2017-10-11T06:00:52.335Z,19.00
2017-10-11T06:03:18.371Z,19.12
2017-10-11T06:05:44.398Z,19.52
2017-10-11T06:08:10.447Z,19.23
2017-10-11T06:10:36.470Z,20.48
2017-10-11T06:13:02.503Z,20.97
2017-10-11T06:15:29.483Z,21.20
2017-10-11T06:17:55.799Z,21.93
2017-10-11T06:20:21.810Z,20.88
2017-10-11T06:22:47.875Z,21.50
2017-10-11T06:25:13.907Z,20.13
2017-10-11T06:27:39.935Z,20.42
2017-10-11T06:30:05.979Z,20.00
2017-10-11T06:32:32.008Z,20.20
2017-10-11T06:34:58.042Z,18.08
2017-10-11T06:37:25.011Z,18.93
2017-10-11T06:39:51.061Z,20.35
2017-10-11T06:42:17.095Z,18.70
2017-10-11T06:44:43.117Z,18.02
2017-10-11T06:47:09.184Z,17.85
2017-10-11T06:49:35.946Z,18.95
2017-10-11T06:52:01.984Z,19.90
2017-10-11T06:54:28.039Z,18.45
2017-10-11T06:56:54.106Z,17.67
2017-10-11T06:59:20.153Z,17.10
2017-10-11T07:01:46.191Z,17.15
2017-10-11T07:04:12.215Z,15.80
2017-10-11T07:06:38.307Z,15.38
2017-10-11T07:09:04.639Z,15.85
2017-10-11T07:11:30.651Z,16.20
2017-10-11T07:13:56.680Z,16.27
2017-10-11T07:16:22.721Z,15.05
2017-10-11T07:18:48.959Z,13.73
2017-10-11T07:21:14.975Z,14.23
2017-10-11T07:23:40.994Z,12.60
2017-10-11T07:26:07.019Z,13.35
2017-10-11T07:28:33.568Z,13.43
2017-10-11T07:30:59.686Z,12.70
2017-10-11T07:33:25.723Z,13.43
2017-10-11T07:35:52.519Z,13.00
2017-10-11T07:38:18.530Z,12.60
2017-10-11T07:40:44.551Z,11.88
2017-10-11T07:43:10.902Z,13.07
2017-10-11T07:45:36.926Z,13.33
2017-10-11T07:48:02.995Z,13.30
2017-10-11T07:50:29.808Z,13.38
2017-10-11T07:52:55.911Z,13.45
2017-10-11T07:55:21.963Z,12.90
2017-10-11T07:57:48.034Z,12.77
2017-10-11T08:00:14.073Z,12.20
2017-10-11T08:02:40.103Z,11.57
2017-10-11T08:05:06.203Z,11.85
2017-10-11T08:07:32.230Z,10.80
2017-10-11T08:09:58.264Z,10.25
2017-10-11T08:12:24.342Z,10.55
2017-10-11T08:14:51.122Z,10.20
2017-10-11T08:17:17.171Z,9.50
2017-10-11T08:19:43.675Z,10.30
2017-10-11T08:22:09.727Z,10.47
2017-10-11T08:24:35.751Z,10.23
2017-10-11T08:27:02.652Z,8.38
2017-10-11T08:29:28.693Z,8.20
2017-10-11T08:31:54.710Z,7.60
2017-10-11T08:34:20.716Z,7.18
2017-10-11T08:36:46.737Z,7.25
2017-10-11T08:39:12.791Z,7.40
2017-10-11T08:41:38.835Z,6.82
2017-10-11T08:44:04.851Z,7.00
2017-10-11T08:46:31.225Z,7.35
2017-10-11T08:48:57.257Z,6.15
2017-10-11T08:51:23.279Z,5.30
2017-10-11T08:53:49.505Z,5.22
2017-10-11T08:56:15.535Z,3.90
2017-10-11T08:58:41.551Z,3.83
2017-10-11T09:01:07.603Z,3.60
2017-10-11T09:03:33.656Z,12.77
2017-10-11T09:05:59.679Z,11.00
2017-10-11T09:08:25.737Z,3.37
2017-10-11T09:10:51.770Z,3.30
2017-10-11T09:13:17.802Z,3.10
2017-10-11T09:15:43.876Z,3.73
2017-10-11T09:18:10.659Z,3.85
2017-10-11T09:20:37.102Z,4.00
2017-10-11T09:23:03.166Z,3.90
2017-10-11T09:25:29.962Z,4.30
2017-10-11T09:27:56.170Z,4.63
2017-10-11T09:30:22.210Z,3.97
2017-10-11T09:32:48.239Z,4.50
2017-10-11T09:35:14.307Z,5.00
2017-10-11T09:37:41.079Z,4.68
2017-10-11T09:40:07.110Z,4.10
2017-10-11T09:42:33.151Z,4.20
2017-10-11T09:44:59.174Z,4.80
2017-10-11T09:47:25.224Z,4.20
2017-10-11T09:49:51.526Z,4.07
2017-10-11T09:52:17.534Z,4.28
2017-10-11T09:54:43.567Z,4.37
2017-10-11T09:57:09.855Z,4.70
2017-10-11T09:59:35.905Z,5.10
2017-10-11T10:02:01.955Z,5.80
2017-10-11T10:04:28.348Z,6.40
2017-10-11T10:06:54.367Z,6.50
2017-10-11T10:09:20.394Z,8.48
2017-10-11T10:11:46.538Z,8.30
2017-10-11T10:14:12.547Z,10.15
2017-10-11T10:16:38.720Z,10.57
2017-10-11T10:19:05.495Z,10.90
2017-10-11T10:21:31.516Z,11.80
2017-10-11T10:23:57.535Z,12.70
2017-10-11T10:26:23.779Z,14.73
2017-10-11T10:28:49.803Z,16.00
2017-10-11T10:31:15.823Z,16.37
2017-10-11T10:33:42.136Z,15.73
2017-10-11T10:36:08.170Z,16.70
2017-10-11T10:38:34.206Z,18.03
2017-10-11T10:41:00.508Z,17.48
2017-10-11T10:43:26.534Z,18.80
2017-10-11T10:45:52.578Z,18.70
2017-10-11T10:48:18.992Z,19.10
2017-10-11T10:50:45.031Z,18.85
2017-10-11T10:53:11.093Z,18.60
2017-10-11T10:55:38.288Z,18.00
2017-10-11T10:58:11.194Z,18.70
2017-10-11T11:00:37.290Z,20.30
2017-10-11T11:03:03.358Z,20.52
2017-10-11T11:05:29.491Z,21.00
2017-10-11T11:07:55.560Z,18.40
2017-10-11T11:10:21.598Z,18.70
2017-10-11T11:12:47.647Z,18.80
2017-10-11T11:15:13.695Z,19.33
2017-10-11T11:17:40.492Z,18.87
2017-10-11T11:20:06.518Z,19.25
2017-10-11T11:22:32.629Z,20.05
2017-10-11T11:24:58.667Z,19.35
2017-10-11T11:27:24.687Z,18.60
2017-10-11T11:29:50.877Z,18.65
2017-10-11T11:32:16.907Z,19.37
2017-10-11T11:34:42.919Z,18.77
2017-10-11T11:37:09.456Z,19.58
2017-10-11T11:39:35.466Z,19.90
2017-10-11T11:42:01.487Z,17.90
2017-10-11T11:44:27.539Z,19.55
2017-10-11T11:46:53.583Z,17.83
2017-10-11T11:49:19.679Z,19.27
2017-10-11T11:51:45.891Z,17.83
2017-10-11T11:54:11.914Z,18.00
2017-10-11T11:56:37.956Z,18.58
2017-10-11T11:59:04.048Z,16.80
2017-10-11T12:01:30.072Z,17.85
2017-10-11T12:03:56.111Z,17.12
2017-10-11T12:06:22.338Z,17.23
2017-10-11T12:08:48.356Z,16.50
2017-10-11T12:11:14.391Z,16.83
2017-10-11T12:13:40.428Z,16.00
2017-10-11T12:16:06.454Z,17.10
2017-10-11T12:18:32.474Z,15.50
2017-10-11T12:20:58.648Z,15.43
2017-10-11T12:23:25.407Z,15.90
2017-10-11T12:25:51.451Z,14.43
2017-10-11T12:28:17.519Z,15.80
2017-10-11T12:30:44.290Z,17.02
2017-10-11T12:33:10.303Z,14.77
2017-10-11T12:35:36.384Z,14.50
2017-10-11T12:38:02.418Z,14.00
2017-10-11T12:40:28.438Z,13.57
2017-10-11T12:42:54.483Z,13.90
2017-10-11T12:45:21.389Z,13.98
2017-10-11T12:47:47.431Z,14.70
2017-10-11T12:50:20.526Z,13.90
2017-10-11T12:52:47.279Z,13.57
2017-10-11T12:55:14.061Z,26.98
2017-10-11T12:57:40.306Z,19.37
2017-10-11T13:00:06.320Z,48.72
2017-10-11T13:02:32.346Z,13.93
2017-10-11T13:04:58.387Z,14.30
2017-10-11T13:07:24.406Z,13.38
2017-10-11T13:09:50.437Z,13.37
2017-10-11T13:12:17.277Z,13.43
2017-10-11T13:14:44.035Z,12.88
2017-10-11T13:17:10.791Z,11.73
2017-10-11T13:19:36.830Z,13.30
2017-10-11T13:22:02.879Z,12.93
2017-10-11T13:24:28.926Z,14.13
2017-10-11T13:26:55.734Z,13.70
2017-10-11T13:29:21.784Z,12.57
2017-10-11T13:31:48.576Z,12.53
2017-10-11T13:34:14.602Z,13.35
2017-10-11T13:36:40.615Z,12.75
2017-10-11T13:39:06.838Z,13.57
2017-10-11T13:41:32.839Z,12.77
2017-10-11T13:43:59.598Z,13.23
2017-10-11T13:46:25.642Z,13.17
2017-10-11T13:48:58.789Z,13.40
2017-10-11T13:51:25.867Z,13.40
2017-10-11T13:53:51.907Z,13.00
2017-10-11T13:56:17.956Z,11.82
2017-10-11T13:58:43.993Z,12.25
2017-10-11T14:01:10.771Z,13.40
2017-10-11T14:03:36.787Z,13.05
2017-10-11T14:06:03.007Z,13.27
2017-10-11T14:08:29.043Z,13.03
2017-10-11T14:10:55.120Z,12.57
2017-10-11T14:13:22.412Z,12.80
2017-10-11T14:15:48.435Z,16.00
2017-10-11T14:18:14.482Z,14.73
2017-10-11T14:20:40.898Z,13.60
2017-10-11T14:23:06.931Z,13.40
2017-10-11T14:25:32.966Z,13.50
2017-10-11T14:27:59.046Z,13.43
2017-10-11T14:30:25.072Z,13.00
2017-10-11T14:32:51.154Z,12.07
2017-10-11T14:35:17.184Z,12.17
2017-10-11T14:37:43.979Z,11.38
2017-10-11T14:40:16.978Z,11.40
2017-10-11T14:42:43.044Z,14.25
2017-10-11T14:45:09.811Z,10.27
2017-10-11T14:47:35.868Z,9.13
2017-10-11T14:50:01.889Z,9.20
2017-10-11T14:52:27.912Z,9.45
2017-10-11T14:54:54.307Z,8.80
2017-10-11T14:57:20.320Z,9.63
2017-10-11T14:59:46.351Z,9.82
2017-10-11T15:02:12.778Z,10.40
2017-10-11T15:04:38.819Z,10.13
2017-10-11T15:07:04.854Z,9.20
2017-10-11T15:09:31.156Z,8.93
2017-10-11T15:11:57.203Z,8.70
2017-10-11T15:14:23.235Z,10.20
2017-10-11T15:16:49.290Z,9.50
2017-10-11T15:19:16.091Z,7.70
2017-10-11T15:21:42.119Z,7.55
2017-10-11T15:24:08.211Z,7.65
2017-10-11T15:26:34.243Z,10.43
2017-10-11T15:29:00.268Z,8.35
2017-10-11T15:31:26.574Z,14.50
2017-10-11T15:33:52.599Z,11.60
2017-10-11T15:36:18.635Z,5.70
2017-10-11T15:38:44.848Z,4.50
2017-10-11T15:41:10.878Z,5.07
2017-10-11T15:43:36.955Z,5.20
2017-10-11T15:46:03.877Z,4.93
2017-10-11T15:48:29.931Z,5.00
2017-10-11T15:50:56.692Z,4.90
2017-10-11T15:53:22.925Z,5.10
2017-10-11T15:55:48.955Z,4.90
2017-10-11T15:58:15.007Z,4.87
2017-10-11T16:00:41.083Z,4.70
2017-10-11T16:03:07.109Z,4.70
2017-10-11T16:05:33.133Z,4.80
2017-10-11T16:07:59.382Z,5.30
2017-10-11T16:10:25.424Z,4.70
2017-10-11T16:12:51.449Z,4.70
2017-10-11T16:15:17.499Z,4.40
2017-10-11T16:17:44.266Z,4.50
2017-10-11T16:20:10.316Z,4.80
2017-10-11T16:22:36.415Z,4.45
2017-10-11T16:25:02.475Z,4.00
2017-10-11T16:27:30.011Z,4.12
2017-10-11T16:29:56.423Z,4.05
2017-10-11T16:32:22.458Z,3.40
2017-10-11T16:34:52.212Z,4.00
2017-10-11T16:37:19.196Z,3.60
2017-10-11T16:39:45.532Z,3.53
2017-10-11T16:42:11.563Z,3.65
2017-10-11T16:44:37.623Z,2.90
2017-10-11T16:47:05.142Z,3.45
2017-10-11T16:49:31.178Z,3.17
2017-10-11T16:51:57.315Z,3.20
2017-10-11T16:54:23.325Z,3.30
2017-10-11T16:59:00.329Z,2.90
2017-10-11T17:01:26.363Z,3.00
2017-10-11T17:03:52.410Z,3.07
2017-10-11T17:06:19.206Z,2.80
2017-10-11T17:08:46.300Z,3.23
2017-10-11T17:11:12.419Z,3.20
2017-10-11T17:13:39.186Z,2.92
2017-10-11T17:16:05.223Z,3.05
2017-10-11T17:18:31.259Z,3.30
2017-10-11T17:20:57.662Z,3.10
2017-10-11T17:23:23.711Z,4.10
2017-10-11T17:25:49.734Z,3.37
2017-10-11T17:28:16.035Z,3.70
2017-10-11T17:30:42.086Z,3.72
2017-10-11T17:33:08.102Z,3.60
2017-10-11T17:35:34.417Z,3.10
2017-10-11T17:38:00.435Z,3.60
2017-10-11T17:40:26.497Z,3.62
2017-10-11T17:42:52.671Z,3.60
2017-10-11T17:45:18.738Z,3.90
2017-10-11T17:47:44.763Z,4.17
2017-10-11T17:50:11.150Z,4.25
2017-10-11T17:52:37.182Z,3.78
2017-10-11T17:55:03.227Z,4.50
2017-10-11T17:57:29.271Z,4.00
2017-10-11T17:59:55.300Z,4.80
2017-10-11T18:02:21.378Z,4.23
2017-10-11T18:04:47.410Z,4.95
2017-10-11T18:07:13.455Z,4.93
2017-10-11T18:09:39.638Z,4.32
2017-10-11T18:12:05.672Z,5.00
2017-10-11T18:14:31.699Z,4.80
2017-10-11T18:16:58.011Z,5.55
2017-10-11T18:19:24.069Z,5.20
2017-10-11T18:21:50.122Z,5.35
2017-10-11T18:24:17.295Z,5.40
2017-10-11T18:26:43.340Z,5.30
2017-10-11T18:29:09.367Z,5.07
2017-10-11T18:31:35.434Z,5.03
2017-10-11T18:34:02.211Z,5.68
2017-10-11T18:36:28.243Z,5.35
2017-10-11T18:38:54.292Z,6.23
2017-10-11T18:41:20.352Z,5.95
2017-10-11T18:43:47.115Z,6.43
2017-10-11T18:46:13.355Z,6.15
2017-10-11T18:48:39.407Z,5.80
2017-10-11T18:51:05.446Z,5.80
2017-10-11T18:53:32.268Z,6.40
2017-10-11T18:55:58.295Z,6.35
2017-10-11T18:58:24.331Z,6.53
2017-10-11T19:00:50.411Z,6.80
2017-10-11T19:03:16.464Z,6.25
2017-10-11T19:05:42.499Z,15.80
2017-10-11T19:08:09.339Z,6.82
2017-10-11T19:10:35.364Z,7.20
2017-10-11T19:13:02.147Z,6.30
2017-10-11T19:15:28.388Z,6.87
2017-10-11T19:17:54.451Z,7.10
2017-10-11T19:20:20.506Z,7.97
2017-10-11T19:22:46.586Z,23.60
2017-10-11T19:25:12.631Z,11.02
2017-10-11T19:27:39.399Z,12.00
2017-10-11T19:30:05.642Z,19.80
2017-10-11T19:32:31.758Z,11.23
2017-10-11T19:34:57.838Z,11.70
2017-10-11T19:37:24.981Z,12.13
2017-10-11T19:39:51.015Z,11.27
2017-10-11T19:42:17.799Z,10.18
2017-10-11T19:44:44.121Z,13.93
2017-10-11T19:47:10.163Z,14.50
2017-10-11T19:49:36.216Z,15.45
2017-10-11T19:52:02.584Z,9.52
2017-10-11T19:54:28.643Z,9.20
2017-10-11T19:56:54.694Z,7.65
2017-10-11T19:59:20.783Z,6.50
2017-10-11T20:01:46.838Z,6.33
2017-10-11T20:04:12.883Z,6.00
2017-10-11T20:06:39.059Z,6.10
2017-10-11T20:09:05.088Z,6.10
2017-10-11T20:11:31.132Z,5.60
2017-10-11T20:13:58.218Z,6.35
2017-10-11T20:16:24.255Z,6.20
2017-10-11T20:18:50.283Z,6.25
2017-10-11T20:21:16.592Z,6.37
2017-10-11T20:23:42.635Z,6.00
2017-10-11T20:26:08.687Z,5.82
2017-10-11T20:28:35.079Z,5.80
2017-10-11T20:31:01.095Z,5.78
2017-10-11T20:33:27.118Z,5.78
2017-10-11T20:35:53.202Z,5.40
2017-10-11T20:38:20.017Z,6.35
2017-10-11T20:40:46.064Z,5.82
2017-10-11T20:43:12.847Z,5.00
2017-10-11T20:45:38.915Z,5.30
2017-10-11T20:48:04.964Z,5.40
2017-10-11T20:50:32.128Z,5.47
2017-10-11T20:53:01.526Z,5.03
2017-10-11T20:55:27.582Z,5.07
2017-10-11T20:57:53.888Z,4.80
2017-10-11T21:00:19.938Z,5.03
2017-10-11T21:02:45.996Z,5.40
2017-10-11T21:05:12.803Z,5.40
2017-10-11T21:07:38.869Z,5.18
2017-10-11T21:10:05.648Z,5.37
2017-10-11T21:12:31.752Z,5.85
2017-10-11T21:14:57.789Z,5.15
2017-10-11T21:17:23.831Z,5.53
2017-10-11T21:19:49.879Z,5.57
2017-10-11T21:22:15.931Z,5.20
2017-10-11T21:24:41.955Z,5.10
2017-10-11T21:27:08.003Z,5.90
2017-10-11T21:29:34.039Z,5.45
2017-10-11T21:32:00.056Z,4.95
2017-10-11T21:34:26.098Z,5.40
2017-10-11T21:36:52.143Z,5.10
2017-10-11T21:39:18.975Z,5.10
2017-10-11T21:41:45.052Z,5.32
2017-10-11T21:44:11.083Z,5.30
2017-10-11T21:46:37.115Z,5.57
2017-10-11T21:49:03.281Z,4.95
2017-10-11T21:51:30.058Z,5.43
2017-10-11T21:53:56.087Z,4.97
2017-10-11T21:56:22.146Z,4.60
2017-10-11T21:58:48.207Z,5.45
2017-10-11T22:01:14.246Z,5.70
2017-10-11T22:03:40.584Z,5.80
2017-10-11T22:06:06.694Z,4.80
2017-10-11T22:08:32.727Z,5.00
2017-10-11T22:10:58.799Z,5.40
2017-10-11T22:13:24.834Z,5.40
2017-10-11T22:15:51.631Z,5.20
2017-10-11T22:18:17.697Z,4.87
2017-10-11T22:20:44.478Z,5.20
2017-10-11T22:23:10.546Z,5.30
2017-10-11T22:25:37.135Z,4.80
2017-10-11T22:28:03.194Z,5.47
2017-10-11T22:30:29.268Z,5.25
2017-10-11T22:32:55.346Z,5.47
2017-10-11T22:35:21.394Z,6.30
2017-10-11T22:37:48.217Z,6.20
2017-10-11T22:40:15.206Z,6.60
2017-10-11T22:42:41.255Z,6.22
2017-10-11T22:45:07.283Z,6.27
2017-10-11T22:47:33.349Z,6.45
2017-10-11T22:50:00.119Z,7.07
2017-10-11T22:52:26.154Z,7.10
2017-10-11T22:54:52.255Z,7.00
2017-10-11T22:57:18.309Z,6.90
2017-10-11T22:59:44.367Z,7.43
2017-10-11T23:02:11.347Z,6.95
2017-10-11T23:04:37.371Z,7.05
2017-10-11T23:07:03.397Z,7.40
2017-10-11T23:09:29.489Z,7.40
2017-10-11T23:11:56.270Z,7.50
2017-10-11T23:14:22.303Z,7.75
2017-10-11T23:16:48.618Z,8.07
2017-10-11T23:19:14.641Z,7.97
2017-10-11T23:21:40.680Z,7.97
2017-10-11T23:24:06.767Z,8.90
2017-10-11T23:26:32.800Z,8.27
2017-10-11T23:28:58.841Z,9.15
2017-10-11T23:31:24.904Z,8.77
2017-10-11T23:33:51.718Z,8.27
2017-10-11T23:36:17.742Z,9.23
2017-10-11T23:38:44.864Z,9.23
2017-10-11T23:41:10.896Z,9.25
2017-10-11T23:43:36.958Z,8.90
2017-10-11T23:46:03.801Z,8.33
2017-10-11T23:48:30.592Z,8.90
2017-10-11T23:50:56.626Z,8.65
2017-10-11T23:53:22.706Z,9.27
2017-10-11T23:55:48.714Z,8.80
2017-10-11T23:58:14.761Z,9.00
